Time;durP1;ratioP1;P1;durP2;ratioP2;P2;SDS_P1;SDS_P2;PMS_P1;PMS_P2;Temp;Humidity;BMP_temperature;BMP_pressure;BME280_temperature;BME280_humidity;BME280_pressure;Samples;Min_cycle;Max_cycle;Signal;HPM_P1;HPM_P2
2022/01/07 00:00:30;;;;;;;19.70;9.68;;;;;;;1.31;76.43;99198.88;2624373;39;20512;-71
2022/01/07 00:03:14;;;;;;;14.80;9.18;;;;;;;1.34;76.41;99189.00;2624017;47;20049;-71
2022/01/07 00:05:44;;;;;;;21.90;10.15;;;;;;;1.39;76.54;99186.88;2624169;54;20034;-71
2022/01/07 00:08:17;;;;;;;22.17;10.13;;;;;;;1.45;76.37;99172.50;2622599;54;20062;-71
2022/01/07 00:10:47;;;;;;;19.75;8.88;;;;;;;1.45;76.55;99181.16;2623556;54;20045;-70
2022/01/07 00:13:16;;;;;;;24.35;10.00;;;;;;;1.51;76.30;99184.19;2625012;39;20551;-70
2022/01/07 00:15:46;;;;;;;20.58;9.35;;;;;;;1.46;76.37;99179.38;2625666;54;20043;-70
2022/01/07 00:18:17;;;;;;;15.82;7.72;;;;;;;1.46;76.37;99188.00;2625967;54;20533;-70
2022/01/07 00:20:48;;;;;;;20.30;8.10;;;;;;;1.48;76.02;99182.69;2624808;47;20042;-69
2022/01/07 00:23:20;;;;;;;15.50;8.50;;;;;;;1.49;76.31;99186.94;2625571;54;20090;-70
2022/01/07 00:25:51;;;;;;;19.30;8.68;;;;;;;1.43;76.16;99175.25;2625778;54;20031;-69
2022/01/07 00:28:21;;;;;;;20.23;9.43;;;;;;;1.40;76.09;99174.66;2625544;54;20035;-70
2022/01/07 00:30:51;;;;;;;16.58;9.18;;;;;;;1.35;76.04;99174.22;2624747;47;20030;-70
2022/01/07 00:33:20;;;;;;;19.10;9.20;;;;;;;1.39;76.29;99173.03;2625520;54;20069;-70
2022/01/07 00:35:50;;;;;;;19.15;9.35;;;;;;;1.32;76.18;99182.28;2626015;54;20019;-70
2022/01/07 00:38:22;;;;;;;16.33;9.55;;;;;;;1.26;75.66;99177.56;2626616;54;20048;-70
2022/01/07 00:40:52;;;;;;;15.40;9.63;;;;;;;1.22;75.98;99172.63;2627244;54;20018;-70
2022/01/07 00:43:22;;;;;;;19.20;8.75;;;;;;;1.16;76.36;99174.88;2626675;54;20030;-70
2022/01/07 00:45:52;;;;;;;20.27;9.77;;;;;;;1.19;76.02;99166.81;2623676;54;20022;-70
2022/01/07 00:48:22;;;;;;;14.77;7.85;;;;;;;1.19;76.36;99169.44;2625975;39;20418;-70
2022/01/07 00:50:51;;;;;;;18.30;9.63;;;;;;;1.22;76.36;99170.00;2625724;54;20057;-70
2022/01/07 00:53:23;;;;;;;20.67;9.23;;;;;;;1.25;76.51;99168.91;2628216;39;20456;-70
2022/01/07 00:55:53;;;;;;;19.67;9.10;;;;;;;1.24;76.47;99170.69;2623756;54;20030;-70
2022/01/07 00:58:23;;;;;;;21.92;9.18;;;;;;;1.33;76.63;99163.09;2624708;54;20022;-71
2022/01/07 01:00:52;;;;;;;15.43;7.88;;;;;;;1.38;76.77;99156.53;2624910;54;20023;-71
2022/01/07 01:03:25;;;;;;;20.23;9.15;;;;;;;1.39;76.15;99158.22;2624447;54;20018;-70
2022/01/07 01:05:58;;;;;;;20.27;8.15;;;;;;;1.46;76.36;99155.91;2623706;54;20042;-70
2022/01/07 01:08:31;;;;;;;20.58;9.40;;;;;;;1.55;76.10;99159.53;2623765;54;20054;-71
2022/01/07 01:11:00;;;;;;;17.48;7.80;;;;;;;1.56;76.13;99159.44;2622270;54;20069;-70
2022/01/07 01:13:32;;;;;;;14.05;8.18;;;;;;;1.61;75.86;99162.47;2620767;54;20038;-70
2022/01/07 01:16:01;;;;;;;20.30;8.10;;;;;;;1.61;75.58;99159.88;2621695;54;20042;-71
2022/01/07 01:18:31;;;;;;;17.73;7.90;;;;;;;1.61;75.79;99161.66;2621869;54;20022;-71
2022/01/07 01:21:01;;;;;;;20.20;7.95;;;;;;;1.58;75.69;99162.72;2625491;54;20027;-70
2022/01/07 01:23:34;;;;;;;14.73;8.18;;;;;;;1.53;75.63;99154.47;2625359;47;20608;-70
2022/01/07 01:26:04;;;;;;;18.85;7.65;;;;;;;1.55;75.55;99152.56;2624043;54;20034;-74
2022/01/07 01:28:34;;;;;;;17.77;7.85;;;;;;;1.58;75.92;99156.69;2624805;47;20101;-70
2022/01/07 01:31:04;;;;;;;15.68;8.32;;;;;;;1.54;75.63;99157.88;2625274;54;20026;-70
2022/01/07 01:33:34;;;;;;;20.00;8.07;;;;;;;1.58;75.77;99146.25;2622354;54;20563;-70
2022/01/07 01:36:03;;;;;;;20.13;8.13;;;;;;;1.57;75.75;99144.63;2620621;54;20030;-70
2022/01/07 01:38:35;;;;;;;18.23;8.50;;;;;;;1.58;75.81;99143.66;2621460;39;20430;-70
2022/01/07 01:41:05;;;;;;;15.88;8.15;;;;;;;1.61;75.94;99133.81;2620517;54;20089;-70
2022/01/07 01:43:35;;;;;;;17.90;8.60;;;;;;;1.63;75.49;99131.06;2620687;54;20042;-71
2022/01/07 01:46:05;;;;;;;19.67;8.00;;;;;;;1.62;75.74;99113.78;2620209;54;20045;-70
2022/01/07 01:48:35;;;;;;;18.40;8.35;;;;;;;1.66;75.49;99116.00;2619891;47;20038;-71
2022/01/07 01:51:05;;;;;;;18.80;8.40;;;;;;;1.68;75.71;99114.09;2626284;54;20030;-70
2022/01/07 01:53:37;;;;;;;15.73;8.35;;;;;;;1.69;75.64;99109.72;2624428;47;20018;-71
2022/01/07 01:56:07;;;;;;;17.08;8.38;;;;;;;1.69;75.75;99112.31;2623714;54;20031;-69
2022/01/07 01:58:37;;;;;;;16.63;7.75;;;;;;;1.70;75.22;99108.75;2622426;54;20034;-72
2022/01/07 02:01:07;;;;;;;17.17;8.20;;;;;;;1.71;75.50;99111.25;2621980;54;20030;-69
2022/01/07 02:03:37;;;;;;;16.88;8.27;;;;;;;1.62;75.35;99103.34;2623321;47;20041;-70
2022/01/07 02:06:06;;;;;;;17.20;7.68;;;;;;;1.65;75.64;99103.09;2623877;54;20038;-71
2022/01/07 02:08:43;;;;;;;16.08;8.05;;;;;;;1.69;75.70;99094.09;2623719;54;20038;-70
2022/01/07 02:11:13;;;;;;;21.13;9.05;;;;;;;1.69;75.14;99091.47;2623327;54;20053;-70
2022/01/07 02:13:46;;;;;;;22.45;8.20;;;;;;;1.69;75.23;99094.09;2623545;39;20418;-70
2022/01/07 02:16:15;;;;;;;16.27;8.00;;;;;;;1.71;75.57;99098.22;2622507;54;20038;-71
2022/01/07 02:18:47;;;;;;;14.73;7.78;;;;;;;1.65;75.40;99090.91;2623502;54;20096;-70
2022/01/07 02:21:19;;;;;;;15.05;8.32;;;;;;;1.62;75.01;99085.13;2624403;47;20078;-70
2022/01/07 02:23:49;;;;;;;22.85;8.75;;;;;;;1.58;75.72;99087.16;2623726;54;20035;-70
2022/01/07 02:26:20;;;;;;;18.42;8.40;;;;;;;1.59;75.77;99081.00;2624302;54;20578;-70
2022/01/07 02:28:51;;;;;;;16.35;7.45;;;;;;;1.61;76.11;99083.47;2624415;54;20638;-71
2022/01/07 02:31:20;;;;;;;15.73;8.25;;;;;;;1.65;75.80;99075.25;2624883;54;20034;-71
2022/01/07 02:33:50;;;;;;;21.02;8.75;;;;;;;1.66;75.56;99076.09;2625511;54;20657;-70
2022/01/07 02:36:25;;;;;;;16.90;8.45;;;;;;;1.68;75.63;99072.41;2624435;54;20030;-69
2022/01/07 02:39:01;;;;;;;16.83;9.02;;;;;;;1.71;75.69;99069.56;2624586;54;20562;-71
2022/01/07 02:41:31;;;;;;;18.55;8.57;;;;;;;1.73;75.50;99061.59;2624556;54;20026;-71
2022/01/07 02:44:01;;;;;;;17.98;8.85;;;;;;;1.74;75.01;99061.44;2624895;54;20037;-70
2022/01/07 02:46:30;;;;;;;20.55;8.82;;;;;;;1.74;75.32;99055.41;2624570;54;20549;-70
2022/01/07 02:49:00;;;;;;;17.00;8.43;;;;;;;1.73;74.74;99061.59;2623994;54;20042;-70
2022/01/07 02:51:32;;;;;;;16.70;8.82;;;;;;;1.68;75.12;99054.16;2625204;39;20426;-69
2022/01/07 02:54:02;;;;;;;18.17;8.90;;;;;;;1.64;74.89;99059.78;2624048;54;20037;-70
2022/01/07 02:56:39;;;;;;;14.77;8.63;;;;;;;1.64;75.18;99055.38;2624543;54;20023;-70
2022/01/07 02:59:10;;;;;;;17.20;8.75;;;;;;;1.67;75.15;99059.50;2624107;47;20030;-70
2022/01/07 03:01:41;;;;;;;20.88;8.48;;;;;;;1.68;75.33;99054.16;2625590;54;20033;-71
2022/01/07 03:04:11;;;;;;;15.70;7.78;;;;;;;1.72;75.20;99060.78;2624971;54;20030;-71
2022/01/07 03:06:44;;;;;;;17.63;7.75;;;;;;;1.71;75.12;99058.28;2624221;54;20026;-71
2022/01/07 03:09:13;;;;;;;14.52;7.50;;;;;;;1.71;74.92;99059.13;2625287;54;20058;-70
2022/01/07 03:11:43;;;;;;;22.65;8.57;;;;;;;1.69;74.83;99062.81;2625274;54;20041;-71
2022/01/07 03:14:13;;;;;;;14.75;7.68;;;;;;;1.67;74.77;99059.50;2625613;54;20031;-71
2022/01/07 03:16:42;;;;;;;20.63;7.93;;;;;;;1.65;74.81;99044.00;2625592;54;20044;-70
2022/01/07 03:19:12;;;;;;;15.68;7.70;;;;;;;1.61;74.67;99041.78;2625330;54;20030;-70
2022/01/07 03:21:46;;;;;;;16.50;7.60;;;;;;;1.63;74.95;99037.25;2626506;39;20493;-71
2022/01/07 03:24:15;;;;;;;17.10;6.97;;;;;;;1.65;74.87;99032.75;2623607;47;20034;-70
2022/01/07 03:26:45;;;;;;;10.98;6.60;;;;;;;1.65;74.67;99030.13;2622480;31;20500;-70
2022/01/07 03:29:15;;;;;;;13.70;7.25;;;;;;;1.66;74.70;99030.00;2623599;54;20306;-70
2022/01/07 03:31:45;;;;;;;16.80;7.05;;;;;;;1.64;74.81;99024.09;2624302;47;20022;-70
2022/01/07 03:34:19;;;;;;;15.27;7.00;;;;;;;1.63;74.61;99022.47;2624530;54;20026;-70
2022/01/07 03:36:51;;;;;;;15.77;7.03;;;;;;;1.61;74.69;99024.34;2626020;39;20407;-69
2022/01/07 03:39:31;;;;;;;17.48;6.75;;;;;;;1.65;74.93;99017.09;2625135;54;20538;-71
2022/01/07 03:42:12;;;;;;;12.45;6.55;;;;;;;1.69;74.92;99019.31;2625787;54;20031;-70
2022/01/07 03:44:42;;;;;;;13.90;6.47;;;;;;;1.69;74.68;99015.91;2625785;54;20022;-70
2022/01/07 03:47:47;;;;;;;16.05;7.20;;;;;;;1.67;74.65;99013.44;2625394;54;20031;-70
2022/01/07 03:50:19;;;;;;;16.20;7.28;;;;;;;1.60;74.93;99007.09;2625193;54;20042;-70
2022/01/07 03:52:52;;;;;;;11.63;6.60;;;;;;;1.62;74.74;99012.16;2625595;54;20030;-70
2022/01/07 03:55:29;;;;;;;11.65;6.97;;;;;;;1.59;75.06;99004.59;2625100;54;20077;-70
2022/01/07 03:58:01;;;;;;;15.32;7.00;;;;;;;1.61;75.15;99005.28;2625830;54;20040;-70
2022/01/07 04:00:35;;;;;;;11.60;6.60;;;;;;;1.66;74.74;99010.94;2624920;47;20031;-70
2022/01/07 04:03:15;;;;;;;13.15;6.60;;;;;;;1.60;75.05;99008.88;2625243;54;20038;-70
2022/01/07 04:05:59;;;;;;;9.60;6.32;;;;;;;1.62;75.11;98999.94;2624493;46;20094;-70
2022/01/07 04:08:31;;;;;;;10.77;6.32;;;;;;;1.59;74.91;98996.78;2624830;54;20043;-71
2022/01/07 04:11:00;;;;;;;14.70;6.70;;;;;;;1.57;75.45;99001.31;2624990;54;20030;-71
2022/01/07 04:13:30;;;;;;;15.15;6.50;;;;;;;1.62;75.51;98999.94;2624653;47;20561;-71
2022/01/07 04:16:25;;;;;;;12.30;6.25;;;;;;;1.66;75.04;99003.94;2625165;54;20025;-71
2022/01/07 04:19:02;;;;;;;15.52;5.72;;;;;;;1.65;75.05;99007.50;2624766;54;20070;-71
2022/01/07 04:21:31;;;;;;;9.32;5.90;;;;;;;1.67;74.92;99002.16;2624524;54;20057;-71
2022/01/07 04:24:03;;;;;;;14.23;6.22;;;;;;;1.68;74.76;98996.81;2624236;54;20041;-70
2022/01/07 04:26:33;;;;;;;15.07;6.55;;;;;;;1.70;74.82;98999.28;2623783;47;20034;-70
2022/01/07 04:29:03;;;;;;;13.95;6.10;;;;;;;1.74;75.16;98998.91;2624087;54;20538;-70
2022/01/07 04:31:32;;;;;;;12.07;6.05;;;;;;;1.75;74.58;98984.06;2625089;54;20538;-70
2022/01/07 04:34:02;;;;;;;14.98;6.13;;;;;;;1.74;74.74;98978.03;2624288;54;20044;-71
2022/01/07 04:36:36;;;;;;;9.82;5.18;;;;;;;1.74;74.57;98979.81;2623966;54;20026;-71
2022/01/07 04:39:11;;;;;;;12.88;5.82;;;;;;;1.79;74.71;98977.63;2623580;54;20031;-70
2022/01/07 04:41:40;;;;;;;11.18;5.05;;;;;;;1.80;74.13;98971.50;2623818;54;20032;-70
2022/01/07 04:44:10;;;;;;;12.52;5.75;;;;;;;1.82;74.55;98973.97;2624780;54;20026;-70
2022/01/07 04:46:40;;;;;;;13.30;5.93;;;;;;;1.79;74.17;98971.59;2624811;54;20042;-70
2022/01/07 04:49:09;;;;;;;12.82;6.00;;;;;;;1.82;74.32;98972.16;2624791;39;20695;-69
2022/01/07 04:51:40;;;;;;;11.38;5.00;;;;;;;1.84;74.01;98972.88;2624198;54;20038;-70
2022/01/07 04:54:17;;;;;;;10.93;5.43;;;;;;;1.80;74.31;98973.28;2624415;47;20041;-70
2022/01/07 04:56:47;;;;;;;12.18;5.65;;;;;;;1.79;74.51;98962.00;2624302;54;20026;-70
2022/01/07 04:59:16;;;;;;;10.52;5.05;;;;;;;1.84;74.51;98965.06;2624630;54;20034;-70
2022/01/07 05:01:47;;;;;;;11.90;4.90;;;;;;;1.86;74.05;98965.75;2623746;54;20038;-69
2022/01/07 05:04:17;;;;;;;10.55;5.13;;;;;;;1.83;73.88;98973.00;2624729;39;20468;-69
2022/01/07 05:06:47;;;;;;;11.05;5.78;;;;;;;1.76;74.53;98959.69;2623553;54;20026;-69
2022/01/07 05:09:20;;;;;;;15.80;6.00;;;;;;;1.79;74.61;98961.19;2623045;47;20034;-72
2022/01/07 05:11:53;;;;;;;11.05;5.85;;;;;;;1.83;74.27;98960.78;2624104;54;20051;-69
2022/01/07 05:14:24;;;;;;;12.93;5.55;;;;;;;1.90;74.44;98959.28;2625629;54;20018;-69
2022/01/07 05:16:59;;;;;;;14.23;5.75;;;;;;;1.91;74.01;98949.69;2625469;54;20033;-70
2022/01/07 05:19:33;;;;;;;11.73;5.93;;;;;;;1.92;74.09;98953.97;2624923;46;20030;-69
2022/01/07 05:22:03;;;;;;;12.00;5.85;;;;;;;1.92;73.56;98954.78;2625351;54;20037;-73
2022/01/07 07:07:30;;;;;;;11.75;5.60;;;;;;;2.04;72.85;98898.13;2573592;39;21306;-65
2022/01/07 07:10:00;;;;;;;12.50;5.13;;;;;;;1.98;73.29;98904.69;2619516;54;20049;-64
2022/01/07 07:12:29;;;;;;;9.25;5.40;;;;;;;2.00;73.54;98896.75;2619690;54;20033;-65
2022/01/07 07:15:02;;;;;;;11.55;4.97;;;;;;;2.02;73.67;98892.22;2619782;54;20026;-64
2022/01/07 07:17:31;;;;;;;12.32;5.85;;;;;;;2.03;73.06;98896.47;2619752;54;20030;-64
2022/01/07 07:20:03;;;;;;;9.20;5.45;;;;;;;2.04;73.19;98894.69;2618646;47;20038;-70
2022/01/07 07:22:35;;;;;;;10.73;5.05;;;;;;;2.08;73.24;98886.47;2619275;54;20050;-70
2022/01/07 07:25:05;;;;;;;9.60;4.60;;;;;;;2.08;73.44;98891.69;2620173;54;20073;-70
2022/01/07 07:27:38;;;;;;;11.18;5.50;;;;;;;2.06;73.18;98883.16;2619949;54;20034;-70
2022/01/07 07:30:10;;;;;;;9.43;4.90;;;;;;;2.08;73.34;98894.28;2620044;54;20566;-70
2022/01/07 07:32:40;;;;;;;11.25;5.38;;;;;;;2.16;73.55;98893.59;2620345;54;20033;-70
2022/01/07 07:37:55;;;;;;;8.18;4.60;;;;;;;2.27;73.54;98892.63;2620601;54;20034;-68
2022/01/07 07:40:24;;;;;;;8.80;4.72;;;;;;;2.24;73.22;98898.94;2620900;54;20022;-70
2022/01/07 07:42:54;;;;;;;8.18;4.30;;;;;;;2.17;73.81;98897.88;2624001;54;20026;-69
2022/01/07 07:45:28;;;;;;;9.13;4.88;;;;;;;2.12;73.33;98897.44;2623721;54;20073;-69
2022/01/07 07:47:58;;;;;;;10.30;5.57;;;;;;;2.16;73.60;98886.63;2624571;54;20034;-68
2022/01/07 07:50:27;;;;;;;10.98;4.57;;;;;;;2.14;73.74;98885.09;2624184;39;20494;-68
2022/01/07 07:52:59;;;;;;;10.55;4.78;;;;;;;2.18;73.97;98891.69;2623075;47;20015;-69
2022/01/07 07:55:29;;;;;;;13.05;5.50;;;;;;;2.19;73.39;98895.94;2621960;47;20045;-70
2022/01/07 07:57:58;;;;;;;8.25;4.90;;;;;;;2.21;73.96;98894.03;2621485;39;20430;-69
2022/01/07 08:00:28;;;;;;;11.65;5.55;;;;;;;2.25;73.66;98897.19;2623178;54;20034;-69
2022/01/07 08:02:58;;;;;;;8.70;5.25;;;;;;;2.25;73.67;98902.41;2624760;54;20031;-69
2022/01/07 08:05:27;;;;;;;13.57;6.28;;;;;;;2.31;73.64;98900.03;2618739;54;20027;-68
2022/01/07 08:08:02;;;;;;;13.68;5.25;;;;;;;2.23;73.06;98889.47;2618589;54;20038;-69
2022/01/07 08:10:32;;;;;;;11.32;5.97;;;;;;;2.15;73.65;98884.13;2619217;54;20050;-69
2022/01/07 08:18:30;;;;;;;;;;;;;;;1.99;75.21;98901.13;2618705;54;20057;-68
2022/01/07 08:21:03;;;;;;;11.40;5.28;;;;;;;2.00;75.52;98907.19;2618835;54;19946;-69
2022/01/07 08:23:37;;;;;;;8.57;5.13;;;;;;;1.94;75.25;98898.09;2619072;54;20037;-69
2022/01/07 08:26:09;;;;;;;12.70;5.93;;;;;;;1.95;75.58;98894.53;2618350;46;20041;-68
2022/01/07 08:28:43;;;;;;;7.90;5.88;;;;;;;1.97;76.07;98887.41;2619052;54;20035;-69
2022/01/07 08:31:25;;;;;;;10.73;5.82;;;;;;;2.08;76.07;98883.88;2618985;54;20031;-69
2022/01/07 08:36:49;;;;;;;10.77;5.22;;;;;;;2.02;75.98;98868.75;2617813;54;20031;-69
2022/01/07 08:39:22;;;;;;;9.52;5.22;;;;;;;2.08;76.15;98873.44;2618832;54;20041;-69
2022/01/07 08:41:52;;;;;;;10.55;5.93;;;;;;;1.99;76.01;98882.88;2618770;54;20035;-69
2022/01/07 08:44:23;;;;;;;13.43;5.32;;;;;;;1.95;76.87;98888.50;2619207;54;20026;-69
2022/01/07 08:46:53;;;;;;;9.57;5.88;;;;;;;1.95;77.32;98885.88;2619250;54;20148;-68
2022/01/07 08:49:24;;;;;;;10.80;5.72;;;;;;;2.00;77.67;98873.28;2619274;54;20189;-70
2022/01/07 08:51:54;;;;;;;11.07;5.55;;;;;;;1.96;77.54;98879.75;2620364;39;20442;-70
2022/01/07 08:54:26;;;;;;;10.95;5.95;;;;;;;1.94;77.94;98873.81;2620007;54;20042;-71
2022/01/07 08:56:55;;;;;;;9.80;5.68;;;;;;;1.96;77.54;98871.91;2619230;54;20042;-70
2022/01/07 08:59:25;;;;;;;8.50;5.70;;;;;;;1.97;77.80;98868.34;2619825;54;20071;-70
2022/01/07 09:01:55;;;;;;;11.05;6.10;;;;;;;2.09;77.74;98866.44;2619874;39;20085;-70
2022/01/07 09:04:25;;;;;;;7.65;4.15;;;;;;;2.06;76.73;98859.69;2618890;54;20034;-69
2022/01/07 09:06:55;;;;;;;9.23;5.38;;;;;;;2.07;76.65;98863.94;2619106;39;20407;-69
2022/01/07 09:09:27;;;;;;;5.90;4.40;;;;;;;2.03;76.74;98857.34;2618676;54;20030;-70
2022/01/07 09:11:57;;;;;;;9.55;4.60;;;;;;;2.10;76.63;98861.06;2618926;54;20022;-70
2022/01/07 09:14:26;;;;;;;15.82;7.85;;;;;;;2.11;76.13;98854.88;2619219;39;20479;-69
2022/01/07 09:16:56;;;;;;;7.40;5.05;;;;;;;2.08;76.46;98851.72;2617921;47;20110;-70
2022/01/07 09:19:26;;;;;;;14.15;7.95;;;;;;;2.07;76.43;98847.47;2618852;54;20037;-70
2022/01/07 09:21:56;;;;;;;8.77;5.13;;;;;;;2.14;76.30;98859.84;2618712;54;20114;-70
2022/01/07 09:24:29;;;;;;;8.73;5.30;;;;;;;2.15;76.10;98858.03;2618069;47;20023;-70
2022/01/07 09:26:59;;;;;;;9.27;5.15;;;;;;;2.15;76.69;98858.84;2618900;39;20406;-70
2022/01/07 09:29:29;;;;;;;10.32;4.68;;;;;;;2.26;76.80;98850.09;2618754;54;20041;-70
2022/01/07 09:31:59;;;;;;;9.55;5.35;;;;;;;2.28;76.44;98857.75;2618623;54;20038;-70
2022/01/07 09:34:28;;;;;;;9.00;4.97;;;;;;;2.21;76.47;98860.13;2618708;54;20065;-69
2022/01/07 09:37:04;;;;;;;9.40;5.18;;;;;;;2.16;76.64;98854.47;2618029;54;20785;-70
2022/01/07 09:39:37;;;;;;;9.50;4.60;;;;;;;2.06;76.86;98846.66;2618915;54;20030;-70
2022/01/07 09:42:08;;;;;;;10.37;4.80;;;;;;;2.09;76.98;98851.59;2618747;54;20046;-70
2022/01/07 09:44:39;;;;;;;11.30;5.40;;;;;;;2.18;77.38;98848.16;2620141;54;20572;-70
2022/01/07 09:47:11;;;;;;;9.88;5.63;;;;;;;2.22;76.94;98849.53;2621667;47;20038;-70
2022/01/07 09:49:41;;;;;;;6.53;4.43;;;;;;;2.20;77.14;98843.66;2622439;54;20031;-70
2022/01/07 09:52:11;;;;;;;9.73;5.50;;;;;;;2.21;77.10;98847.06;2624254;54;20026;-70
2022/01/07 09:54:44;;;;;;;12.00;6.13;;;;;;;2.29;77.19;98842.00;2624704;54;20070;-70
2022/01/07 09:57:13;;;;;;;7.63;5.57;;;;;;;2.37;76.75;98849.94;2625655;39;20497;-70
2022/01/07 09:59:43;;;;;;;16.92;7.13;;;;;;;2.52;76.53;98845.09;2626718;54;20042;-71
2022/01/07 10:02:18;;;;;;;15.02;5.43;;;;;;;2.67;75.98;98848.09;2625692;47;20600;-71
2022/01/07 10:04:48;;;;;;;11.98;6.05;;;;;;;2.62;75.70;98843.31;2625873;54;20030;-71
2022/01/07 10:07:21;;;;;;;9.18;5.50;;;;;;;2.66;75.55;98839.44;2625606;54;20037;-71
2022/01/07 10:10:04;;;;;;;16.08;5.70;;;;;;;2.77;75.48;98835.81;2625179;47;20026;-69
2022/01/07 10:12:49;;;;;;;7.67;4.57;;;;;;;2.91;75.59;98834.56;2626695;54;20031;-70
2022/01/07 10:15:21;;;;;;;10.65;5.28;;;;;;;2.78;74.92;98834.06;2625686;54;20049;-69
2022/01/07 10:18:00;;;;;;;14.30;6.10;;;;;;;2.85;75.43;98828.09;2619844;54;20069;-70
2022/01/07 10:20:32;;;;;;;7.28;4.55;;;;;;;2.81;75.72;98834.56;2618310;54;20034;-71
2022/01/07 10:23:03;;;;;;;7.32;5.30;;;;;;;2.73;75.62;98831.84;2618695;39;20442;-69
2022/01/07 10:25:38;;;;;;;8.88;4.70;;;;;;;2.69;75.63;98840.94;2618470;54;20038;-69
2022/01/07 10:28:08;;;;;;;;;;;;;;;2.52;76.13;98833.84;2618238;39;20684;-70
2022/01/07 10:30:40;;;;;;;11.93;5.47;;;;;;;2.60;76.50;98831.34;2618988;39;20704;-69
2022/01/07 10:33:25;;;;;;;9.05;4.97;;;;;;;2.57;76.46;98835.09;2618761;54;20026;-69
2022/01/07 10:35:56;;;;;;;7.65;4.82;;;;;;;2.58;76.06;98825.47;2618217;54;20026;-70
2022/01/07 10:38:27;;;;;;;7.13;4.22;;;;;;;2.58;76.21;98828.88;2618792;54;20039;-69
2022/01/07 10:41:01;;;;;;;6.68;4.53;;;;;;;2.60;76.20;98821.72;2617989;47;20065;-69
2022/01/07 10:43:35;;;;;;;7.15;5.07;;;;;;;2.62;76.00;98834.66;2618615;54;20045;-69
2022/01/07 10:46:16;;;;;;;6.85;3.72;;;;;;;2.62;76.19;98824.22;2617660;54;20038;-69
2022/01/07 10:48:50;;;;;;;6.68;4.32;;;;;;;2.55;76.17;98828.34;2618420;54;20027;-70
2022/01/07 10:51:22;;;;;;;6.43;4.72;;;;;;;2.49;75.69;98816.69;2617524;54;20085;-69
2022/01/07 10:53:54;;;;;;;8.23;6.20;;;;;;;2.51;76.01;98813.94;2618130;39;20668;-69
2022/01/07 10:56:36;;;;;;;9.07;6.10;;;;;;;2.52;76.31;98807.75;2617544;54;20544;-70
2022/01/07 10:59:07;;;;;;;8.68;5.15;;;;;;;2.55;76.06;98810.06;2617751;54;20038;-70
2022/01/07 11:01:42;;;;;;;6.30;4.82;;;;;;;2.57;75.90;98805.53;2617786;54;20041;-70
2022/01/07 11:04:15;;;;;;;7.80;5.97;;;;;;;2.64;76.08;98798.78;2617274;54;20061;-70
2022/01/07 11:06:46;;;;;;;8.43;5.25;;;;;;;2.67;75.91;98803.72;2617686;54;20046;-70
2022/01/07 11:09:17;;;;;;;8.20;4.70;;;;;;;2.64;76.04;98796.16;2617633;54;20045;-70
2022/01/07 11:11:52;;;;;;;6.75;4.68;;;;;;;2.64;75.92;98798.78;2617823;54;20146;-70
2022/01/07 11:14:25;;;;;;;5.95;4.88;;;;;;;2.69;76.03;98794.78;2617889;54;20045;-70
2022/01/07 11:16:57;;;;;;;7.65;5.65;;;;;;;2.75;75.93;98798.59;2617419;54;20065;-70
2022/01/07 11:19:31;;;;;;;7.00;5.53;;;;;;;2.87;76.20;98812.31;2617737;54;20050;-69
2022/01/07 11:22:01;;;;;;;8.53;5.47;;;;;;;2.89;75.71;98803.34;2618010;54;20030;-70
2022/01/07 11:24:36;;;;;;;7.10;5.18;;;;;;;2.94;75.68;98793.31;2610959;39;20667;-68
2022/01/07 11:27:12;;;;;;;5.97;4.95;;;;;;;2.97;75.20;98787.78;2618389;54;20030;-68
2022/01/07 11:29:43;;;;;;;8.07;4.65;;;;;;;2.97;75.13;98786.97;2619549;39;20660;-68
2022/01/07 11:32:34;;;;;;;7.70;5.00;;;;;;;3.03;75.03;98781.19;2619027;39;20429;-68
2022/01/07 11:35:45;;;;;;;6.30;4.47;;;;;;;3.01;75.00;98772.66;2618470;49;20023;-68
2022/01/07 11:38:48;;;;;;;16.73;5.40;;;;;;;2.94;75.40;98775.03;2619319;54;20558;-69
2022/01/07 11:41:44;;;;;;;13.15;5.70;;;;;;;2.90;75.77;98775.47;2624649;46;20766;-68
2022/01/07 11:44:25;;;;;;;6.20;4.50;;;;;;;2.84;74.99;98776.84;2625018;51;20026;-68
2022/01/07 11:47:24;;;;;;;8.88;4.07;;;;;;;2.75;75.56;98772.50;2625261;54;20030;-68
2022/01/07 11:50:06;;;;;;;7.90;4.03;;;;;;;2.71;75.04;98766.75;2624803;47;20086;-68
2022/01/07 11:52:38;;;;;;;6.13;3.88;;;;;;;2.69;75.51;98773.06;2626454;39;20454;-68
2022/01/07 11:55:38;;;;;;;4.40;3.80;;;;;;;2.68;75.26;98761.81;2625223;54;20022;-68
2022/01/07 11:58:10;;;;;;;5.32;3.75;;;;;;;2.64;75.57;98751.81;2625630;54;20754;-68
2022/01/07 12:01:00;;;;;;;5.05;3.80;;;;;;;2.69;75.72;98746.97;2625709;54;20541;-68
2022/01/07 12:03:37;;;;;;;6.95;4.45;;;;;;;2.71;75.36;98758.91;2627218;54;20050;-69
2022/01/07 12:06:36;;;;;;;5.38;4.03;;;;;;;2.82;75.63;98744.88;2626285;54;20030;-68
2022/01/07 12:09:12;;;;;;;5.82;3.65;;;;;;;2.82;75.40;98744.88;2626101;54;20034;-67
2022/01/07 12:11:44;;;;;;;7.15;5.07;;;;;;;2.75;75.59;98742.97;2625257;47;20030;-69
2022/01/07 12:14:15;;;;;;;6.07;3.92;;;;;;;2.69;75.41;98734.75;2625777;54;20034;-67
2022/01/07 12:16:49;;;;;;;7.15;4.68;;;;;;;2.70;75.60;98738.19;2625981;54;20031;-67
2022/01/07 12:20:00;;;;;;;;;;;;;;;2.75;76.07;98738.56;2626695;54;20038;-66
2022/01/07 12:22:30;;;;;;;7.93;4.88;;;;;;;2.79;76.09;98731.28;2628818;54;19938;-67
2022/01/07 12:25:02;;;;;;;11.48;6.60;;;;;;;2.78;76.09;98734.88;2629081;54;20037;-68
2022/01/07 12:27:33;;;;;;;5.68;4.53;;;;;;;2.83;76.09;98741.28;2629314;54;20038;-67
2022/01/07 12:30:03;;;;;;;7.78;5.50;;;;;;;2.71;76.13;98739.81;2628275;54;20035;-68
2022/01/07 12:32:40;;;;;;;5.30;4.57;;;;;;;2.69;76.84;98733.91;2628565;51;20050;-68
2022/01/07 12:35:12;;;;;;;5.90;3.70;;;;;;;2.61;76.92;98744.25;2629250;54;20034;-67
2022/01/07 12:37:42;;;;;;;3.92;3.53;;;;;;;2.66;76.70;98735.03;2628722;54;20034;-67
2022/01/07 12:40:13;;;;;;;5.65;3.75;;;;;;;2.68;77.01;98724.44;2628929;54;20030;-68
2022/01/07 12:42:48;;;;;;;5.70;3.63;;;;;;;2.73;76.79;98723.06;2628735;51;20022;-69
2022/01/07 12:45:20;;;;;;;5.30;4.03;;;;;;;2.70;76.92;98730.34;2626198;54;20027;-67
2022/01/07 12:47:55;;;;;;;6.28;3.50;;;;;;;2.61;76.88;98728.59;2624828;47;20037;-68
2022/01/07 12:50:25;;;;;;;4.07;3.60;;;;;;;2.53;77.00;98718.03;2624725;54;20030;-68
2022/01/07 12:52:54;;;;;;;4.75;3.75;;;;;;;2.51;77.16;98726.03;2624681;54;20034;-68
2022/01/07 12:55:26;;;;;;;5.85;3.50;;;;;;;2.52;77.38;98719.84;2624253;54;20023;-68
2022/01/07 12:58:02;;;;;;;6.07;3.67;;;;;;;2.49;77.39;98735.81;2624123;54;20042;-68
2022/01/07 13:00:32;;;;;;;6.55;3.60;;;;;;;2.45;77.33;98731.84;2623589;47;20085;-67
2022/01/07 13:03:06;;;;;;;4.97;3.78;;;;;;;2.40;77.90;98719.19;2623473;54;20037;-69
2022/01/07 13:05:40;;;;;;;5.07;3.80;;;;;;;2.40;77.83;98728.81;2624472;54;20073;-68
2022/01/07 13:08:12;;;;;;;6.70;4.43;;;;;;;2.48;78.14;98734.13;2624245;54;20039;-70
2022/01/07 13:10:43;;;;;;;7.90;4.93;;;;;;;2.52;77.80;98730.28;2624918;54;20026;-69
2022/01/07 13:13:14;;;;;;;5.10;4.32;;;;;;;2.51;77.82;98727.81;2625459;47;20030;-68
2022/01/07 13:15:51;;;;;;;7.13;4.63;;;;;;;2.55;77.49;98716.94;2626084;46;20033;-68
2022/01/07 13:18:27;;;;;;;5.53;3.60;;;;;;;2.55;77.79;98730.00;2627170;54;20081;-69
2022/01/07 13:20:59;;;;;;;5.43;2.97;;;;;;;2.58;77.73;98724.50;2626946;39;20474;-68
2022/01/07 13:23:29;;;;;;;6.63;4.63;;;;;;;2.63;77.83;98716.22;2630883;39;20434;-68
2022/01/07 13:26:00;;;;;;;5.40;4.00;;;;;;;2.71;77.66;98717.16;2626019;54;20062;-68
2022/01/07 13:28:35;;;;;;;4.85;3.95;;;;;;;2.73;78.28;98710.00;2626292;54;20033;-68
2022/01/07 13:31:05;;;;;;;4.38;3.05;;;;;;;2.76;77.98;98710.69;2625547;39;20514;-68
2022/01/07 13:33:39;;;;;;;3.53;2.80;;;;;;;2.71;78.17;98709.31;2624480;47;20028;-68
2022/01/07 13:36:37;;;;;;;4.05;3.10;;;;;;;2.73;77.83;98709.16;2623338;47;20075;-68
2022/01/07 13:39:08;;;;;;;3.80;2.65;;;;;;;2.69;77.81;98710.41;2624566;54;20600;-68
2022/01/07 13:41:54;;;;;;;4.82;3.20;;;;;;;2.71;77.98;98709.31;2624865;54;20658;-68
2022/01/07 13:44:24;;;;;;;4.70;3.00;;;;;;;2.67;77.73;98707.16;2626250;39;20527;-67
2022/01/07 13:46:55;;;;;;;4.47;3.00;;;;;;;2.72;77.78;98715.34;2624965;39;20426;-68
2022/01/07 13:49:29;;;;;;;3.75;2.70;;;;;;;2.76;77.52;98719.31;2624321;39;20779;-68
2022/01/07 13:52:02;;;;;;;2.72;2.15;;;;;;;2.77;77.25;98712.31;2624612;54;20018;-68
2022/01/07 13:54:36;;;;;;;3.38;2.75;;;;;;;2.73;77.59;98712.63;2624293;54;20061;-68
2022/01/07 13:57:09;;;;;;;5.28;4.10;;;;;;;2.77;78.10;98704.47;2623432;54;20557;-68